Time;durP1;ratioP1;P1;durP2;ratioP2;P2;SDS_P1;SDS_P2;PMS_P1;PMS_P2;Temp;Humidity;BMP_temperature;BMP_pressure;BME280_temperature;BME280_humidity;BME280_pressure;Samples;Min_cycle;Max_cycle;Signal;HPM_P1;HPM_P2
2022/06/13 00:00:10;;;;;;;0.30;0.30;;;25.70;80.10;;;;;;5068892;28;20408;-63
2022/06/13 00:02:38;;;;;;;0.30;0.30;;;25.70;80.30;;;;;;5027418;28;20366;-63
2022/06/13 00:05:07;;;;;;;0.43;0.43;;;25.70;80.40;;;;;;5061030;28;20053;-58
2022/06/13 00:07:35;;;;;;;0.50;0.50;;;25.70;80.50;;;;;;5066610;28;20047;-60
2022/06/13 00:10:02;;;;;;;3.70;0.65;;;25.70;80.60;;;;;;5066634;28;20055;-61
2022/06/13 00:12:30;;;;;;;0.47;0.47;;;25.70;80.60;;;;;;5061344;28;20037;-59
2022/06/13 00:14:57;;;;;;;0.47;0.47;;;25.70;80.80;;;;;;5063009;28;20384;-63
2022/06/13 00:17:25;;;;;;;0.40;0.40;;;25.70;80.90;;;;;;5066163;28;20496;-62
2022/06/13 00:19:52;;;;;;;0.47;0.47;;;25.70;80.90;;;;;;5065104;28;20048;-62
2022/06/13 00:22:20;;;;;;;0.45;0.45;;;25.70;80.90;;;;;;5073717;28;20423;-62
2022/06/13 00:24:47;;;;;;;0.70;0.70;;;25.70;81.10;;;;;;5065153;28;20053;-60
2022/06/13 00:27:15;;;;;;;0.50;0.50;;;25.70;81.10;;;;;;5073527;28;20055;-66
2022/06/13 00:29:44;;;;;;;0.30;0.30;;;25.70;81.20;;;;;;5055778;28;20045;-64
2022/06/13 00:32:11;;;;;;;0.70;0.70;;;25.70;81.30;;;;;;5056059;28;20393;-65
2022/06/13 00:34:39;;;;;;;2.03;1.15;;;25.70;81.20;;;;;;5070904;28;20060;-61
2022/06/13 00:37:06;;;;;;;0.30;0.30;;;25.70;81.40;;;;;;5061738;28;20045;-63
2022/06/13 00:39:33;;;;;;;0.40;0.40;;;25.70;81.50;;;;;;5061836;28;20123;-62
2022/06/13 00:42:01;;;;;;;0.30;0.30;;;25.70;81.60;;;;;;5062546;28;20057;-63
2022/06/13 00:44:34;;;;;;;0.30;0.30;;;25.70;81.60;;;;;;5056895;28;20494;-62
2022/06/13 00:47:02;;;;;;;4.38;1.25;;;25.70;81.70;;;;;;5068242;28;20060;-58
2022/06/13 00:49:34;;;;;;;0.45;0.45;;;25.70;81.80;;;;;;5064853;28;20040;-60
2022/06/13 00:52:08;;;;;;;0.60;0.60;;;25.70;81.90;;;;;;5049903;28;20044;-60
2022/06/13 00:54:39;;;;;;;0.30;0.30;;;25.60;82.00;;;;;;5055236;28;20150;-62
2022/06/13 00:57:12;;;;;;;2.60;1.40;;;25.70;82.20;;;;;;5065237;28;20055;-60
2022/06/13 00:59:41;;;;;;;0.52;0.52;;;25.70;82.50;;;;;;5059395;28;20044;-59
2022/06/13 01:02:09;;;;;;;0.77;0.77;;;25.70;82.30;;;;;;5063737;28;20049;-62
2022/06/13 01:04:39;;;;;;;1.77;1.13;;;25.60;82.50;;;;;;5066104;28;20514;-61
2022/06/13 01:07:09;;;;;;;0.70;0.70;;;25.70;82.50;;;;;;5063153;28;20049;-62
2022/06/13 01:12:27;;;;;;;0.47;0.47;;;25.60;82.60;;;;;;5064018;28;20043;-60
2022/06/13 01:15:03;;;;;;;0.40;0.40;;;25.60;83.00;;;;;;5059228;28;20048;-60
2022/06/13 01:17:34;;;;;;;0.20;0.20;;;25.60;82.90;;;;;;5066876;28;20056;-62
2022/06/13 01:20:23;;;;;;;0.43;0.43;;;25.70;83.20;;;;;;5063354;28;20052;-62
2022/06/13 01:23:39;;;;;;;0.40;0.40;;;25.60;83.10;;;;;;5058173;28;20049;-61
2022/06/13 01:26:19;;;;;;;2.10;1.23;;;25.70;83.40;;;;;;5065886;28;20059;-60
2022/06/13 01:29:25;;;;;;;0.60;0.60;;;25.70;83.50;;;;;;5059354;28;20053;-62
2022/06/13 01:31:56;;;;;;;1.55;0.38;;;25.60;83.40;;;;;;5066683;28;20049;-63
2022/06/13 01:34:35;;;;;;;0.50;0.50;;;25.60;83.60;;;;;;5064886;28;20503;-59
2022/06/13 01:37:09;;;;;;;0.40;0.40;;;25.60;83.60;;;;;;5063250;28;20353;-60
2022/06/13 01:39:45;;;;;;;2.50;1.27;;;25.60;83.50;;;;;;5066268;28;20045;-61
2022/06/13 01:42:18;;;;;;;2.25;1.00;;;25.60;83.40;;;;;;5049293;28;20053;-62
2022/06/13 01:45:07;;;;;;;1.55;1.23;;;25.60;83.50;;;;;;5057725;28;20526;-62
2022/06/13 01:48:00;;;;;;;0.25;0.25;;;25.60;83.50;;;;;;5061107;28;20040;-62
2022/06/13 01:50:52;;;;;;;0.35;0.35;;;25.60;83.40;;;;;;5065611;28;20051;-62
2022/06/13 01:53:30;;;;;;;0.50;0.50;;;25.60;83.50;;;;;;5057029;28;20057;-61
2022/06/13 01:56:08;;;;;;;0.75;0.75;;;25.60;83.60;;;;;;5062839;28;20040;-60
2022/06/13 01:58:45;;;;;;;0.47;0.47;;;25.60;83.60;;;;;;5051222;28;20092;-63
2022/06/13 02:01:34;;;;;;;6.55;0.77;;;25.60;83.60;;;;;;5065542;28;20426;-62
2022/06/13 02:04:20;;;;;;;0.77;0.77;;;25.60;83.60;;;;;;5051618;28;20496;-62
2022/06/13 02:07:08;;;;;;;0.30;0.30;;;25.60;83.70;;;;;;5065384;28;20569;-62
2022/06/13 02:09:50;;;;;;;3.75;1.92;;;25.60;83.70;;;;;;5060757;28;20055;-62
2022/06/13 02:12:20;;;;;;;1.25;0.52;;;25.60;83.60;;;;;;5064693;28;20040;-60
2022/06/13 02:14:54;;;;;;;0.50;0.50;;;25.60;83.60;;;;;;5066029;28;20173;-60
2022/06/13 02:17:27;;;;;;;0.47;0.47;;;25.60;83.60;;;;;;5062755;28;20480;-60
2022/06/13 02:20:19;;;;;;;2.22;0.80;;;25.60;83.60;;;;;;5073418;28;20045;-61
2022/06/13 02:22:51;;;;;;;5.13;1.20;;;25.60;83.60;;;;;;5058892;28;20056;-60
2022/06/13 02:25:28;;;;;;;0.30;0.30;;;25.60;83.60;;;;;;5059809;28;20045;-61
2022/06/13 02:28:23;;;;;;;1.17;0.75;;;25.60;83.60;;;;;;5064250;28;20040;-59
2022/06/13 02:31:02;;;;;;;0.35;0.35;;;25.60;83.60;;;;;;5076605;28;20052;-61
2022/06/13 02:33:42;;;;;;;0.77;0.75;;;25.60;83.60;;;;;;5072636;28;20044;-64
2022/06/13 02:36:33;;;;;;;0.45;0.45;;;25.60;83.60;;;;;;5074067;28;20036;-62
2022/06/13 02:39:07;;;;;;;0.30;0.30;;;25.50;83.50;;;;;;5062124;28;20075;-61
2022/06/13 02:41:42;;;;;;;0.63;0.63;;;25.50;83.50;;;;;;5075064;28;20041;-60
2022/06/13 02:44:24;;;;;;;0.45;0.45;;;25.50;83.60;;;;;;5063807;28;20045;-63
2022/06/13 02:46:57;;;;;;;0.50;0.50;;;25.50;83.60;;;;;;5064977;28;20424;-60
2022/06/13 02:49:42;;;;;;;0.25;0.25;;;25.50;83.60;;;;;;5066662;28;20037;-64
2022/06/13 02:52:16;;;;;;;0.38;0.38;;;25.50;83.60;;;;;;5067853;28;20045;-63
2022/06/13 02:54:56;;;;;;;0.40;0.40;;;25.50;83.60;;;;;;5069293;28;20048;-62
2022/06/13 02:57:31;;;;;;;0.47;0.47;;;25.50;83.60;;;;;;5064482;28;20059;-64
2022/06/13 03:00:11;;;;;;;0.30;0.30;;;25.50;83.60;;;;;;5073844;28;20480;-61
2022/06/13 03:02:44;;;;;;;0.30;0.30;;;25.50;83.60;;;;;;5073306;28;20048;-65
2022/06/13 03:05:42;;;;;;;0.30;0.30;;;25.50;83.60;;;;;;5084590;28;20060;-63
2022/06/13 03:08:32;;;;;;;0.60;0.60;;;25.50;83.70;;;;;;5065232;28;20108;-63
2022/06/13 03:11:30;;;;;;;0.40;0.40;;;25.50;83.60;;;;;;5067620;28;20059;-60
2022/06/13 03:14:13;;;;;;;1.20;1.05;;;25.50;83.60;;;;;;5058756;28;20056;-60
2022/06/13 03:17:04;;;;;;;0.30;0.30;;;25.50;83.50;;;;;;5068634;28;20051;-61
2022/06/13 03:19:43;;;;;;;0.30;0.30;;;25.50;83.50;;;;;;5069279;28;20060;-61
2022/06/13 03:22:45;;;;;;;1.77;0.93;;;25.50;83.50;;;;;;5057294;28;20052;-60
2022/06/13 03:25:41;;;;;;;0.43;0.43;;;25.50;83.40;;;;;;5063194;28;20405;-63
2022/06/13 03:28:19;;;;;;;0.30;0.30;;;25.40;83.40;;;;;;5066524;28;20052;-63
2022/06/13 03:30:55;;;;;;;0.30;0.30;;;25.50;83.80;;;;;;5063012;28;20041;-61
2022/06/13 03:33:42;;;;;;;0.40;0.40;;;25.50;83.50;;;;;;5067143;28;20044;-61
2022/06/13 03:36:14;;;;;;;0.30;0.30;;;25.50;83.50;;;;;;5068756;28;20033;-62
2022/06/13 03:38:50;;;;;;;0.73;0.60;;;25.40;83.40;;;;;;5060168;28;20059;-61
2022/06/13 03:41:22;;;;;;;0.30;0.30;;;25.40;83.60;;;;;;5067459;28;20060;-62
2022/06/13 03:43:59;;;;;;;0.82;0.82;;;25.40;83.40;;;;;;5058075;28;20087;-60
2022/06/13 03:46:34;;;;;;;0.50;0.50;;;25.40;83.50;;;;;;5067642;28;20059;-62
2022/06/13 03:49:09;;;;;;;2.53;0.93;;;25.40;83.40;;;;;;5056562;28;20838;-59
2022/06/13 03:51:43;;;;;;;0.30;0.30;;;25.40;83.40;;;;;;5062239;28;20044;-64
2022/06/13 03:54:22;;;;;;;0.57;0.57;;;25.40;83.50;;;;;;5066084;28;20475;-61
2022/06/13 03:57:18;;;;;;;0.65;0.65;;;25.40;83.50;;;;;;5065562;28;20052;-60
2022/06/13 03:59:53;;;;;;;0.50;0.50;;;25.40;83.60;;;;;;5043580;28;20048;-60
2022/06/13 04:02:28;;;;;;;2.03;0.85;;;25.40;83.50;;;;;;5070679;28;20078;-63
2022/06/13 04:04:56;;;;;;;0.40;0.40;;;25.40;83.60;;;;;;5036894;28;20542;-61
2022/06/13 04:07:27;;;;;;;0.40;0.40;;;25.40;84.60;;;;;;5041263;28;20543;-61
2022/06/13 04:10:06;;;;;;;0.30;0.30;;;25.40;84.30;;;;;;5048368;28;20045;-61
2022/06/13 04:12:37;;;;;;;0.50;0.50;;;25.40;84.20;;;;;;5052811;28;20045;-62
2022/06/13 04:15:31;;;;;;;3.83;1.60;;;25.40;84.10;;;;;;5049162;28;20045;-60
2022/06/13 04:18:24;;;;;;;0.30;0.30;;;25.40;84.10;;;;;;5043817;28;20383;-64
2022/06/13 04:21:14;;;;;;;1.25;0.77;;;25.40;84.00;;;;;;5052352;28;20049;-60
2022/06/13 04:24:03;;;;;;;0.95;0.60;;;25.40;84.00;;;;;;5041322;28;20508;-60
2022/06/13 04:26:41;;;;;;;1.88;0.88;;;25.40;83.90;;;;;;5047562;28;20047;-63
2022/06/13 04:29:18;;;;;;;0.38;0.38;;;25.40;83.90;;;;;;5035318;28;20049;-63
2022/06/13 04:31:46;;;;;;;0.75;0.60;;;25.40;83.90;;;;;;5043464;28;20051;-61
2022/06/13 04:34:22;;;;;;;0.28;0.28;;;25.40;83.90;;;;;;5046276;28;20075;-63
2022/06/13 04:36:51;;;;;;;0.55;0.55;;;25.40;83.80;;;;;;5046447;28;20056;-61
2022/06/13 04:39:24;;;;;;;2.03;1.15;;;25.40;83.70;;;;;;5036875;28;20049;-61
2022/06/13 04:41:55;;;;;;;0.45;0.45;;;25.40;83.40;;;;;;5044863;28;20057;-63
2022/06/13 04:44:25;;;;;;;0.25;0.25;;;25.40;83.40;;;;;;5040696;28;20045;-61
2022/06/13 04:46:55;;;;;;;0.20;0.20;;;25.40;83.20;;;;;;5042763;28;20421;-61
2022/06/13 04:49:25;;;;;;;0.73;0.73;;;25.40;83.20;;;;;;5042188;28;20406;-61
2022/06/13 04:51:54;;;;;;;0.25;0.25;;;25.40;83.30;;;;;;5039470;28;20068;-58
2022/06/13 04:54:33;;;;;;;0.32;0.32;;;25.40;83.00;;;;;;5033991;28;20049;-59
2022/06/13 04:57:01;;;;;;;0.50;0.50;;;25.40;83.80;;;;;;5063160;28;20455;-61
2022/06/13 04:59:30;;;;;;;0.80;0.50;;;25.40;84.10;;;;;;5043572;28;20072;-62
2022/06/13 05:02:00;;;;;;;0.30;0.30;;;25.40;83.30;;;;;;5047140;28;20044;-62
2022/06/13 05:04:30;;;;;;;0.90;0.80;;;25.40;79.70;;;;;;5045250;28;20721;-58
2022/06/13 05:07:13;;;;;;;0.60;0.60;;;25.20;77.60;;;;;;5060736;28;20048;-59
2022/06/13 05:09:57;;;;;;;0.40;0.40;;;25.20;79.10;;;;;;5066652;28;20047;-61
2022/06/13 05:12:44;;;;;;;1.33;0.85;;;25.20;79.00;;;;;;5059991;28;20044;-60
2022/06/13 05:15:15;;;;;;;0.40;0.40;;;25.10;78.70;;;;;;5063636;28;20052;-59
2022/06/13 05:18:16;;;;;;;4.30;2.13;;;25.10;77.70;;;;;;5065950;28;20042;-57
2022/06/13 05:20:58;;;;;;;1.10;0.88;;;25.10;78.00;;;;;;5062229;28;20602;-58
2022/06/13 05:23:37;;;;;;;1.55;0.95;;;25.10;78.10;;;;;;5058425;28;20055;-60
2022/06/13 05:26:06;;;;;;;1.23;0.98;;;25.00;77.70;;;;;;5064641;28;20044;-59
2022/06/13 05:28:36;;;;;;;0.73;0.73;;;25.00;77.70;;;;;;5066189;28;20045;-61
2022/06/13 05:31:11;;;;;;;0.47;0.47;;;25.00;77.40;;;;;;5060712;28;20044;-63
2022/06/13 05:33:41;;;;;;;10.75;3.92;;;25.00;77.30;;;;;;5061608;28;20044;-60
2022/06/13 05:36:14;;;;;;;1.35;0.77;;;25.00;77.10;;;;;;5067626;28;20048;-63
2022/06/13 05:38:47;;;;;;;0.43;0.43;;;25.00;78.00;;;;;;5055969;28;20045;-61
2022/06/13 05:41:14;;;;;;;1.25;1.00;;;25.00;78.90;;;;;;5057572;28;20052;-60
2022/06/13 05:43:42;;;;;;;;;;;25.10;79.10;;;;;;5065927;28;20044;-65
2022/06/13 05:46:16;;;;;;;0.65;0.65;;;25.20;79.00;;;;;;5062012;28;20396;-60
2022/06/13 05:48:45;;;;;;;1.75;0.98;;;25.20;79.30;;;;;;5070905;28;20045;-62
2022/06/13 05:51:12;;;;;;;3.70;1.65;;;25.30;79.10;;;;;;5064623;28;20044;-62
2022/06/13 05:53:39;;;;;;;0.73;0.73;;;25.60;79.20;;;;;;5035860;28;20044;-62
2022/06/13 05:56:10;;;;;;;1.45;0.82;;;26.20;77.90;;;;;;5060961;28;20052;-58
2022/06/13 05:58:37;;;;;;;1.55;1.30;;;26.60;75.80;;;;;;5066248;28;20488;-58
2022/06/13 06:01:05;;;;;;;;;;;25.90;74.50;;;;;;5066589;28;20053;-61
2022/06/13 06:03:33;;;;;;;0.50;0.50;;;25.50;75.00;;;;;;5062842;28;19925;-60
2022/06/13 06:06:01;;;;;;;;;;;25.10;74.70;;;;;;5064741;28;20511;-60
2022/06/13 06:08:31;;;;;;;1.38;0.93;;;24.90;75.20;;;;;;5067774;28;19928;-59
2022/06/13 06:10:59;;;;;;;1.65;1.00;;;24.80;75.80;;;;;;5049234;28;20045;-60
2022/06/13 06:13:27;;;;;;;;;;;24.70;75.60;;;;;;5050966;28;20375;-60
2022/06/13 06:15:56;;;;;;;0.60;0.60;;;24.70;75.80;;;;;;5062976;28;20112;-59
2022/06/13 06:18:25;;;;;;;0.60;0.60;;;24.60;75.50;;;;;;5062942;28;20052;-63
2022/06/13 06:20:52;;;;;;;0.80;0.80;;;24.60;75.40;;;;;;5055662;28;20048;-62
2022/06/13 06:23:19;;;;;;;0.60;0.60;;;24.60;75.30;;;;;;5066628;28;20053;-60
2022/06/13 06:25:48;;;;;;;0.45;0.45;;;24.60;75.10;;;;;;5060673;28;20059;-62
2022/06/13 06:28:22;;;;;;;2.80;1.15;;;24.60;74.60;;;;;;5061944;28;20068;-59
2022/06/13 06:30:51;;;;;;;0.50;0.50;;;24.60;76.40;;;;;;5058481;28;20045;-55
2022/06/13 06:33:20;;;;;;;1.95;1.42;;;24.70;76.80;;;;;;5049795;28;20048;-61
2022/06/13 06:35:49;;;;;;;0.30;0.30;;;24.90;77.30;;;;;;5043306;28;20724;-65
2022/06/13 06:38:16;;;;;;;0.68;0.68;;;25.00;77.50;;;;;;5059171;28;20083;-60
2022/06/13 06:40:44;;;;;;;0.35;0.35;;;25.10;77.70;;;;;;5059236;28;20060;-59
2022/06/13 06:43:11;;;;;;;0.43;0.43;;;25.20;77.80;;;;;;5057890;28;20064;-62
2022/06/13 06:45:39;;;;;;;0.40;0.40;;;25.20;78.30;;;;;;5059018;28;20143;-62
2022/06/13 06:48:06;;;;;;;1.20;0.77;;;25.30;78.50;;;;;;5063193;28;20040;-57
2022/06/13 06:50:34;;;;;;;;;;;25.30;79.30;;;;;;5061669;28;20511;-64
2022/06/13 06:53:01;;;;;;;;;;;25.40;79.80;;;;;;5061985;28;19920;-62
2022/06/13 07:00:59;;;;;;;0.63;0.57;;;25.40;80.70;;;;;;5059661;28;20047;-58
2022/06/13 07:03:27;;;;;;;0.95;0.95;;;25.40;81.50;;;;;;5058526;28;20974;-59
2022/06/13 07:05:54;;;;;;;1.27;0.93;;;25.50;81.30;;;;;;5060101;28;20441;-59
2022/06/13 07:08:22;;;;;;;1.92;0.95;;;25.40;81.50;;;;;;5057698;28;20059;-59
2022/06/13 07:10:49;;;;;;;;;;;25.50;82.00;;;;;;5057626;28;20040;-54
2022/06/13 07:13:19;;;;;;;0.50;0.50;;;25.50;82.80;;;;;;5061896;28;19924;-55
2022/06/13 07:15:48;;;;;;;0.45;0.45;;;25.50;83.20;;;;;;5061638;28;20047;-60
2022/06/13 07:18:17;;;;;;;0.28;0.28;;;25.60;83.50;;;;;;5066143;28;20045;-57
2022/06/13 07:20:44;;;;;;;0.55;0.55;;;25.60;83.70;;;;;;5047324;28;21474;-58
2022/06/13 07:23:12;;;;;;;0.70;0.70;;;25.60;83.60;;;;;;5068029;28;20048;-57
2022/06/13 07:25:40;;;;;;;1.65;1.13;;;25.60;83.90;;;;;;5060747;28;20322;-59
2022/06/13 07:28:07;;;;;;;1.85;1.40;;;25.60;84.20;;;;;;5064959;28;20060;-59
2022/06/13 07:30:34;;;;;;;0.60;0.60;;;25.60;84.10;;;;;;5062854;28;20045;-60
2022/06/13 07:33:02;;;;;;;7.28;1.58;;;25.60;84.50;;;;;;5063545;28;20047;-61
2022/06/13 07:35:30;;;;;;;0.30;0.30;;;25.70;85.60;;;;;;5062977;28;20045;-61
2022/06/13 07:40:53;;;;;;;0.47;0.47;;;25.60;86.30;;;;;;5062674;28;20409;-61
2022/06/13 07:43:30;;;;;;;0.30;0.30;;;25.70;86.30;;;;;;5085597;28;20055;-61
2022/06/13 07:46:00;;;;;;;;;;;25.70;86.50;;;;;;5057851;28;20040;-58
2022/06/13 07:48:29;;;;;;;0.50;0.50;;;25.70;86.50;;;;;;5081077;28;19929;-58
2022/06/13 07:50:57;;;;;;;0.30;0.30;;;25.70;86.60;;;;;;5057658;28;20044;-60
2022/06/13 07:53:25;;;;;;;0.40;0.40;;;25.70;86.30;;;;;;5057989;28;20056;-56
2022/06/13 07:56:15;;;;;;;3.50;1.63;;;25.70;86.30;;;;;;5059187;28;20055;-59
2022/06/13 07:58:44;;;;;;;0.38;0.38;;;25.60;86.50;;;;;;5059976;28;20041;-60
2022/06/13 08:01:12;;;;;;;0.43;0.43;;;25.60;86.60;;;;;;5064665;28;20431;-59
2022/06/13 08:03:40;;;;;;;2.55;1.10;;;25.60;86.40;;;;;;5064168;28;20036;-59
2022/06/13 08:06:09;;;;;;;0.40;0.40;;;25.70;86.70;;;;;;5063132;28;20523;-56
2022/06/13 08:08:39;;;;;;;0.73;0.50;;;25.70;86.30;;;;;;5062137;28;20044;-57
2022/06/13 08:11:09;;;;;;;0.22;0.22;;;25.70;86.40;;;;;;5060550;28;20074;-58
2022/06/13 08:13:39;;;;;;;0.65;0.50;;;25.70;86.70;;;;;;5067582;28;20040;-61
2022/06/13 08:16:08;;;;;;;0.43;0.43;;;25.80;86.80;;;;;;5065325;28;20048;-61
2022/06/13 08:18:36;;;;;;;0.55;0.55;;;25.80;86.40;;;;;;5066792;28;20044;-61
2022/06/13 08:21:04;;;;;;;0.30;0.30;;;25.80;86.40;;;;;;5061853;28;20059;-60
2022/06/13 08:23:32;;;;;;;0.20;0.20;;;25.80;86.60;;;;;;5065268;28;20051;-62
2022/06/13 08:26:01;;;;;;;0.40;0.40;;;25.70;86.70;;;;;;5063921;28;20040;-60
2022/06/13 08:28:28;;;;;;;0.40;0.40;;;25.80;87.70;;;;;;5050666;28;20375;-57
2022/06/13 08:31:00;;;;;;;0.30;0.30;;;25.80;87.50;;;;;;5055128;28;20084;-61
2022/06/13 08:33:28;;;;;;;0.30;0.30;;;25.70;87.60;;;;;;5063664;28;20499;-59
2022/06/13 08:35:55;;;;;;;0.40;0.40;;;25.70;87.80;;;;;;5061381;28;20040;-62
2022/06/13 08:38:23;;;;;;;0.40;0.40;;;25.80;87.80;;;;;;5061875;28;20048;-61
2022/06/13 08:41:06;;;;;;;0.22;0.22;;;25.80;87.80;;;;;;5081723;28;20049;-62
2022/06/13 08:44:02;;;;;;;0.93;0.65;;;25.80;89.40;;;;;;5065787;28;20445;-64
2022/06/13 08:46:48;;;;;;;1.27;1.05;;;25.80;88.60;;;;;;5048884;28;20411;-60
2022/06/13 08:49:51;;;;;;;0.40;0.40;;;25.80;90.00;;;;;;5058650;28;20426;-60
2022/06/13 08:52:24;;;;;;;0.30;0.30;;;25.80;90.10;;;;;;5049605;28;20449;-61
2022/06/13 08:55:13;;;;;;;0.45;0.45;;;25.80;90.20;;;;;;5064744;28;20040;-60
2022/06/13 08:58:22;;;;;;;0.30;0.30;;;25.80;90.10;;;;;;5061025;28;20049;-60
2022/06/13 09:00:57;;;;;;;0.30;0.30;;;25.90;90.10;;;;;;5036564;28;20044;-63
2022/06/13 09:03:51;;;;;;;0.40;0.40;;;25.90;90.20;;;;;;5063832;28;20388;-60
2022/06/13 09:06:24;;;;;;;0.52;0.52;;;25.90;90.30;;;;;;5062698;28;20087;-62
2022/06/13 09:09:19;;;;;;;1.08;0.85;;;25.90;90.00;;;;;;5059577;28;20436;-60
2022/06/13 09:12:27;;;;;;;1.73;0.93;;;25.90;90.10;;;;;;5063398;28;20059;-61
2022/06/13 09:15:07;;;;;;;1.45;1.15;;;25.80;90.00;;;;;;5043437;28;20045;-62
2022/06/13 09:17:50;;;;;;;0.65;0.50;;;25.80;90.00;;;;;;5062121;28;20056;-57
2022/06/13 09:20:27;;;;;;;0.30;0.30;;;25.80;90.00;;;;;;5062904;28;20377;-57
2022/06/13 09:23:15;;;;;;;0.40;0.40;;;25.80;89.80;;;;;;5045281;28;20826;-61
2022/06/13 09:25:55;;;;;;;1.45;0.85;;;25.80;89.20;;;;;;5059593;28;20468;-59
2022/06/13 09:28:30;;;;;;;3.00;1.95;;;25.80;89.60;;;;;;5059258;28;20483;-56
2022/06/13 09:31:05;;;;;;;0.45;0.45;;;25.80;89.40;;;;;;5055550;28;20055;-60
2022/06/13 09:33:35;;;;;;;0.80;0.77;;;25.90;89.70;;;;;;5051716;28;20511;-62
2022/06/13 09:36:22;;;;;;;0.50;0.50;;;25.90;89.70;;;;;;5064554;28;20036;-60
2022/06/13 09:39:05;;;;;;;0.40;0.40;;;25.80;89.10;;;;;;5065592;28;20041;-60
2022/06/13 09:41:39;;;;;;;0.65;0.65;;;25.80;89.30;;;;;;5067984;28;20622;-62
2022/06/13 09:44:25;;;;;;;0.30;0.30;;;25.90;89.50;;;;;;5067239;28;20044;-60
2022/06/13 09:46:58;;;;;;;0.73;0.73;;;25.90;89.60;;;;;;5065387;28;20048;-62
2022/06/13 09:49:36;;;;;;;0.60;0.60;;;25.90;89.50;;;;;;5065657;28;20072;-61
2022/06/13 09:52:26;;;;;;;0.30;0.30;;;25.90;89.40;;;;;;5060816;28;20351;-62
2022/06/13 09:55:02;;;;;;;4.03;0.77;;;25.90;89.30;;;;;;5055135;28;20512;-61
2022/06/13 09:57:53;;;;;;;0.30;0.30;;;25.90;89.20;;;;;;5047374;28;20064;-63
2022/06/13 10:00:51;;;;;;;0.63;0.63;;;25.90;89.00;;;;;;5057565;28;20063;-62
2022/06/13 10:03:47;;;;;;;0.32;0.32;;;25.90;89.10;;;;;;5067619;28;20060;-61
2022/06/13 10:06:26;;;;;;;1.00;0.63;;;25.90;89.10;;;;;;5066823;28;20060;-61
2022/06/13 10:09:28;;;;;;;0.30;0.30;;;25.90;89.00;;;;;;5059315;28;20499;-61
2022/06/13 10:12:17;;;;;;;0.55;0.40;;;25.90;88.90;;;;;;5065095;28;20139;-58
2022/06/13 10:14:53;;;;;;;0.60;0.50;;;25.90;88.90;;;;;;5062465;28;20423;-67
2022/06/13 10:17:42;;;;;;;1.30;0.95;;;25.90;88.80;;;;;;5059694;28;20052;-64
2022/06/13 10:20:21;;;;;;;0.93;0.90;;;25.90;88.80;;;;;;5061941;28;20483;-67
2022/06/13 10:23:11;;;;;;;0.20;0.20;;;25.90;89.40;;;;;;5074653;28;20389;-66
2022/06/13 10:25:48;;;;;;;0.50;0.50;;;25.90;89.80;;;;;;5062240;28;20070;-63
2022/06/13 10:28:50;;;;;;;0.40;0.40;;;25.90;89.60;;;;;;5061067;28;20045;-67
2022/06/13 10:31:37;;;;;;;0.45;0.45;;;25.90;89.50;;;;;;5063825;28;20048;-63
2022/06/13 10:34:29;;;;;;;0.57;0.57;;;25.90;89.60;;;;;;5067595;28;20449;-64
2022/06/13 10:37:11;;;;;;;0.30;0.30;;;25.90;90.00;;;;;;5065224;28;20051;-64
2022/06/13 10:39:40;;;;;;;0.40;0.40;;;25.80;89.90;;;;;;5072696;28;20048;-66
2022/06/13 10:42:15;;;;;;;1.65;1.02;;;25.80;90.00;;;;;;5064702;28;20052;-66
2022/06/13 10:44:43;;;;;;;0.50;0.50;;;25.80;90.40;;;;;;5061273;28;20048;-64
2022/06/13 10:47:38;;;;;;;0.30;0.30;;;25.80;90.10;;;;;;5066207;28;20040;-66
2022/06/13 10:50:08;;;;;;;0.30;0.30;;;25.80;90.00;;;;;;5067684;28;20052;-63
2022/06/13 10:52:40;;;;;;;0.60;0.60;;;25.80;89.30;;;;;;5068245;28;20056;-66
2022/06/13 10:55:11;;;;;;;0.52;0.52;;;25.80;87.70;;;;;;5070830;28;20076;-66
2022/06/13 10:58:03;;;;;;;2.00;1.48;;;25.80;86.20;;;;;;5073265;28;20402;-62
2022/06/13 11:00:31;;;;;;;0.52;0.52;;;25.80;85.60;;;;;;5019887;28;20056;-58
2022/06/13 11:03:17;;;;;;;0.20;0.20;;;25.80;85.50;;;;;;5065213;28;20523;-61
2022/06/13 11:05:54;;;;;;;0.65;0.65;;;25.80;85.70;;;;;;5066432;28;20165;-63
2022/06/13 11:08:23;;;;;;;0.50;0.50;;;25.80;84.90;;;;;;5055089;28;20429;-65
2022/06/13 11:11:02;;;;;;;0.70;0.70;;;25.80;85.00;;;;;;5071276;28;20053;-60
2022/06/13 11:13:37;;;;;;;0.57;0.57;;;25.80;84.80;;;;;;5067592;28;20355;-61
2022/06/13 11:22:40;;;;;;;0.57;0.57;;;25.80;83.00;;;;;;5063016;28;20519;-62
2022/06/13 11:25:25;;;;;;;0.50;0.50;;;25.80;82.60;;;;;;5075872;28;20067;-65
2022/06/13 11:28:07;;;;;;;0.68;0.65;;;25.80;82.30;;;;;;5069126;28;20064;-63
2022/06/13 11:30:44;;;;;;;2.17;1.00;;;25.80;81.80;;;;;;5078084;28;20485;-60
2022/06/13 11:33:25;;;;;;;3.25;1.58;;;25.80;81.30;;;;;;5060243;28;20565;-65
2022/06/13 11:36:14;;;;;;;2.25;0.95;;;25.80;80.80;;;;;;5068409;28;20460;-59
2022/06/13 11:39:04;;;;;;;1.45;1.02;;;25.80;80.50;;;;;;5068791;28;20045;-60
2022/06/13 11:41:42;;;;;;;0.20;0.20;;;25.80;80.10;;;;;;5067914;28;20503;-60
2022/06/13 11:44:17;;;;;;;0.20;0.20;;;25.80;79.60;;;;;;5068840;28;20045;-68
2022/06/13 11:46:59;;;;;;;1.17;0.65;;;25.70;79.00;;;;;;5042739;28;20048;-59
2022/06/13 11:49:29;;;;;;;2.80;1.50;;;25.80;78.80;;;;;;5081982;28;20049;-64
2022/06/13 11:51:56;;;;;;;0.80;0.77;;;25.80;78.70;;;;;;5064797;28;20079;-63
2022/06/13 11:54:32;;;;;;;0.80;0.57;;;25.80;78.90;;;;;;5068032;28;20036;-60
2022/06/13 11:57:18;;;;;;;1.17;0.50;;;25.70;79.50;;;;;;5069280;28;20040;-63
2022/06/13 12:00:05;;;;;;;1.58;1.48;;;25.70;80.50;;;;;;5063993;28;20064;-60
2022/06/13 12:02:38;;;;;;;0.40;0.40;;;25.70;80.40;;;;;;5074570;28;20048;-56
2022/06/13 12:05:19;;;;;;;0.98;0.75;;;25.80;80.70;;;;;;5067440;28;20425;-60
2022/06/13 12:08:15;;;;;;;4.32;2.03;;;25.80;80.90;;;;;;5065363;28;20525;-57
2022/06/13 12:11:03;;;;;;;2.72;1.85;;;25.80;81.00;;;;;;5065219;28;20052;-58
2022/06/13 12:13:33;;;;;;;0.43;0.43;;;25.80;80.90;;;;;;5067530;28;20041;-60
2022/06/13 12:16:20;;;;;;;3.10;1.60;;;25.80;81.20;;;;;;5065221;28;20048;-62
2022/06/13 12:19:02;;;;;;;0.30;0.30;;;25.80;81.00;;;;;;5063014;28;20052;-59
2022/06/13 12:22:02;;;;;;;1.55;1.23;;;25.80;80.70;;;;;;5061165;28;20303;-59
2022/06/13 12:24:34;;;;;;;5.30;2.40;;;25.80;80.70;;;;;;5065600;28;20395;-64
2022/06/13 12:27:21;;;;;;;13.35;2.17;;;25.80;80.70;;;;;;5061394;28;20388;-60
2022/06/13 12:29:57;;;;;;;0.70;0.70;;;25.80;80.50;;;;;;5060060;28;20044;-65
2022/06/13 12:32:35;;;;;;;1.75;0.90;;;25.80;80.70;;;;;;5073308;28;20052;-59
2022/06/13 12:35:18;;;;;;;2.03;1.05;;;25.80;80.80;;;;;;5068280;28;20689;-61
2022/06/13 12:37:55;;;;;;;1.23;1.08;;;25.90;80.50;;;;;;5064726;28;20049;-60
2022/06/13 12:40:41;;;;;;;1.90;1.00;;;25.90;81.00;;;;;;5075986;28;20515;-62
2022/06/13 12:43:34;;;;;;;0.73;0.73;;;25.80;80.30;;;;;;5063244;28;20064;-61
2022/06/13 12:46:19;;;;;;;2.67;1.48;;;25.80;79.90;;;;;;5069321;28;20085;-61
2022/06/13 12:49:22;;;;;;;0.50;0.50;;;25.90;80.10;;;;;;5087134;28;20419;-61
2022/06/13 12:51:52;;;;;;;3.20;1.65;;;25.80;79.70;;;;;;5064391;28;20048;-60
2022/06/13 12:55:02;;;;;;;1.08;0.65;;;25.90;80.00;;;;;;5068873;28;20064;-60
2022/06/13 12:57:37;;;;;;;0.95;0.95;;;25.90;80.00;;;;;;5041260;28;20056;-65
2022/06/13 13:00:16;;;;;;;2.53;1.25;;;25.90;79.80;;;;;;5065117;28;20044;-62
2022/06/13 13:02:55;;;;;;;1.45;0.77;;;26.00;79.70;;;;;;5064217;28;20071;-62
2022/06/13 13:05:35;;;;;;;3.05;1.95;;;26.00;79.40;;;;;;5066752;28;20067;-66
2022/06/13 13:08:05;;;;;;;16.67;2.00;;;26.00;79.40;;;;;;5058617;28;20048;-62
2022/06/13 13:10:58;;;;;;;2.10;1.27;;;26.00;78.60;;;;;;5067150;28;20040;-67
2022/06/13 13:13:39;;;;;;;1.77;1.20;;;26.00;78.70;;;;;;5063202;28;20064;-63
2022/06/13 13:16:13;;;;;;;0.43;0.43;;;26.00;79.20;;;;;;5062077;28;20048;-64
2022/06/13 13:19:09;;;;;;;0.32;0.32;;;26.00;80.40;;;;;;5065883;28;20048;-60
2022/06/13 13:21:49;;;;;;;1.77;1.45;;;26.00;79.70;;;;;;5055755;28;20044;-60
2022/06/13 13:24:49;;;;;;;4.47;1.45;;;26.00;79.00;;;;;;5063898;28;20401;-61
2022/06/13 13:27:18;;;;;;;0.30;0.30;;;26.00;78.70;;;;;;5060989;28;20040;-58
2022/06/13 13:30:19;;;;;;;0.75;0.75;;;26.10;78.40;;;;;;5055454;28;20059;-57
2022/06/13 13:33:00;;;;;;;0.70;0.63;;;26.10;78.10;;;;;;5060560;28;20040;-59
2022/06/13 13:35:30;;;;;;;1.98;0.93;;;26.10;78.00;;;;;;5058577;28;20148;-59
2022/06/13 13:38:07;;;;;;;2.95;1.83;;;26.10;77.70;;;;;;5067153;28;20045;-59
2022/06/13 13:40:49;;;;;;;0.40;0.40;;;26.20;77.60;;;;;;5050587;28;20033;-63
2022/06/13 13:43:44;;;;;;;0.25;0.25;;;26.20;77.40;;;;;;5063566;28;20056;-59
2022/06/13 13:46:27;;;;;;;0.50;0.50;;;26.30;77.50;;;;;;5061828;28;20514;-61
2022/06/13 13:49:04;;;;;;;0.30;0.30;;;26.30;77.10;;;;;;5068814;28;20047;-62
2022/06/13 13:51:46;;;;;;;0.40;0.40;;;26.30;76.90;;;;;;5066767;28;20487;-58
2022/06/13 13:54:21;;;;;;;0.80;0.80;;;26.30;76.90;;;;;;5063448;28;20491;-60
2022/06/13 13:57:02;;;;;;;0.50;0.50;;;26.30;76.70;;;;;;5063918;28;20040;-63